KMHK

Manhattan Regional Airport

Manhattan, Kansas, USA
METAR KMHK 141652Z 02006KT 10SM CLR 06/M06 A3030 RMK AO2 SLP266 T00611061
Observed Flight Rules
Dec-14 @ 16:52 UTC (31 minutes ago) Visual Flight Rules
Wind Visibility Clouds
20° at 6 knots 10 miles
  • Clear skies
Temperatures Readings
Current 6°C / 43°F
Dewpoint -6°C / 21°F
Humidity 42%
Altimeter 30.3" Hg
Pressure 1026.6 hPa
Elevation 317
METAR KMHK 141652Z 02006KT 10SM CLR 06/M06 A3030 RMK AO2 SLP266 T00611061
Observed Flight Rules
Dec-14 @ 16:52 UTC
(31 minutes ago)
VFR
Wind Visibility
20° at 6 knots 10 miles
Clouds
  • Clear skies
Temperature Dewpoint
6°C / 43°F -6°C / 21°F
Humidity Altimeter Pressure
42% 30.3" Hg 1026.6 hPa